Time;durP1;ratioP1;P1;durP2;ratioP2;P2;SDS_P1;SDS_P2;PMS_P1;PMS_P2;Temp;Humidity;BMP_temperature;BMP_pressure;BME280_temperature;BME280_humidity;BME280_pressure;Samples;Min_cycle;Max_cycle;Signal;HPM_P1;HPM_P2
2022/09/15 00:00:25;;;;;;;8.97;5.13;;;16.50;99.90;;;;;;5071042;28;20437;-50
2022/09/15 00:02:53;;;;;;;16.40;6.67;;;16.30;99.90;;;;;;5071028;28;20462;-50
2022/09/15 00:05:20;;;;;;;11.80;5.70;;;16.40;99.90;;;;;;5071129;28;20434;-50
2022/09/15 00:07:47;;;;;;;9.43;5.40;;;16.50;99.90;;;;;;5071249;28;20440;-49
2022/09/15 00:10:13;;;;;;;9.33;5.03;;;16.80;99.90;;;;;;5071075;28;20458;-51
2022/09/15 00:12:40;;;;;;;17.50;5.77;;;16.30;99.90;;;;;;5071246;28;20450;-51
2022/09/15 00:15:08;;;;;;;13.57;5.27;;;16.60;99.90;;;;;;5071398;28;20430;-49
2022/09/15 00:17:35;;;;;;;13.63;5.63;;;16.40;99.90;;;;;;5071306;28;20435;-49
2022/09/15 00:20:05;;;;;;;11.07;5.20;;;16.60;99.90;;;;;;5070835;28;20438;-50
2022/09/15 00:22:32;;;;;;;10.13;4.57;;;16.40;99.90;;;;;;5071360;28;20502;-50
2022/09/15 00:24:59;;;;;;;11.63;4.00;;;16.20;99.90;;;;;;5071261;28;20485;-49
2022/09/15 00:27:26;;;;;;;7.20;4.10;;;16.30;99.90;;;;;;5071344;28;20509;-50
2022/09/15 00:29:52;;;;;;;8.60;4.53;;;16.30;99.90;;;;;;5070522;28;20444;-50
2022/09/15 00:32:19;;;;;;;11.00;4.20;;;16.30;99.90;;;;;;5052555;28;20958;-49
2022/09/15 00:34:45;;;;;;;9.30;4.80;;;16.30;99.90;;;;;;5071198;28;20435;-51
2022/09/15 00:37:13;;;;;;;11.80;3.80;;;16.30;99.90;;;;;;5071440;28;20430;-49
2022/09/15 00:39:40;;;;;;;8.73;4.07;;;16.10;99.90;;;;;;5070413;28;20792;-49
2022/09/15 00:42:07;;;;;;;10.87;3.97;;;16.20;99.90;;;;;;5070686;28;20807;-49
2022/09/15 00:44:49;;;;;;;8.67;4.00;;;16.20;99.90;;;;;;5070897;28;20482;-49
2022/09/15 00:47:17;;;;;;;7.80;3.80;;;16.30;99.90;;;;;;5070916;28;20892;-51
2022/09/15 00:49:45;;;;;;;10.53;3.63;;;16.00;99.90;;;;;;5070439;28;20440;-49
2022/09/15 00:52:17;;;;;;;6.27;3.30;;;16.20;99.90;;;;;;5070963;28;20433;-50
2022/09/15 00:54:47;;;;;;;10.43;4.53;;;16.20;99.90;;;;;;5070972;28;20942;-49
2022/09/15 00:57:18;;;;;;;8.30;3.90;;;16.20;99.90;;;;;;5071118;28;20468;-49
2022/09/15 00:59:46;;;;;;;7.93;4.23;;;15.90;99.90;;;;;;5070348;28;20440;-50
2022/09/15 01:02:17;;;;;;;8.43;4.63;;;16.00;99.90;;;;;;5070875;28;20430;-49
2022/09/15 01:04:44;;;;;;;9.03;5.40;;;15.90;99.90;;;;;;5070962;28;20482;-50
2022/09/15 01:07:15;;;;;;;10.60;4.60;;;16.00;99.90;;;;;;5074575;28;20434;-51
2022/09/15 01:09:49;;;;;;;7.67;3.80;;;15.90;99.90;;;;;;5074462;28;20744;-49
2022/09/15 01:12:16;;;;;;;13.37;4.70;;;15.70;99.90;;;;;;5074154;28;20440;-49
2022/09/15 01:14:43;;;;;;;7.63;4.57;;;15.90;99.90;;;;;;5074143;28;20431;-49
2022/09/15 01:17:17;;;;;;;9.07;4.30;;;16.00;99.90;;;;;;5074104;28;20442;-49
2022/09/15 01:20:15;;;;;;;11.30;4.50;;;15.80;99.90;;;;;;5073729;28;20442;-49
2022/09/15 01:22:54;;;;;;;8.00;3.83;;;15.90;99.90;;;;;;5055656;28;20457;-49
2022/09/15 01:25:34;;;;;;;9.03;4.40;;;15.70;99.90;;;;;;5073744;28;20487;-49
2022/09/15 01:28:29;;;;;;;11.93;4.60;;;15.40;99.90;;;;;;5055488;28;20437;-50
2022/09/15 01:31:00;;;;;;;9.50;4.33;;;15.60;99.90;;;;;;5045843;28;20452;-51
2022/09/15 01:33:34;;;;;;;8.67;4.73;;;15.50;99.90;;;;;;5073809;28;20751;-49
2022/09/15 01:36:05;;;;;;;8.90;4.27;;;15.60;99.90;;;;;;5073489;28;20934;-49
2022/09/15 01:38:41;;;;;;;5.63;3.17;;;15.40;99.90;;;;;;5073127;28;20438;-50
2022/09/15 01:41:12;;;;;;;8.03;4.13;;;15.50;99.90;;;;;;5073558;28;20429;-50
2022/09/15 01:43:45;;;;;;;7.47;4.13;;;15.50;99.90;;;;;;5073503;28;20462;-49
2022/09/15 01:46:14;;;;;;;7.37;3.93;;;15.60;99.90;;;;;;5073773;28;20437;-50
2022/09/15 01:48:43;;;;;;;7.13;3.43;;;15.50;99.90;;;;;;5073018;28;20939;-50
2022/09/15 01:51:09;;;;;;;7.23;4.50;;;15.50;99.90;;;;;;5073263;28;20919;-51
2022/09/15 01:53:36;;;;;;;6.87;4.10;;;15.20;99.90;;;;;;5073379;28;20477;-49
2022/09/15 01:56:07;;;;;;;11.27;4.43;;;15.40;99.90;;;;;;5073275;28;20434;-50
2022/09/15 01:58:34;;;;;;;9.40;4.00;;;15.50;99.90;;;;;;5072801;28;20794;-49
2022/09/15 02:01:05;;;;;;;10.20;4.30;;;15.70;99.90;;;;;;5073050;28;20430;-50
2022/09/15 02:03:43;;;;;;;6.63;4.23;;;15.40;99.90;;;;;;5072956;28;20454;-50
2022/09/15 02:06:17;;;;;;;6.70;3.50;;;15.40;99.90;;;;;;5073163;28;20451;-50
2022/09/15 02:08:51;;;;;;;6.40;3.80;;;15.40;99.90;;;;;;5054784;28;20947;-50
2022/09/15 02:11:19;;;;;;;8.70;3.70;;;15.30;99.90;;;;;;5073022;28;20422;-49
2022/09/15 02:13:54;;;;;;;8.07;3.87;;;15.40;99.90;;;;;;5072927;28;20461;-51
2022/09/15 02:16:23;;;;;;;5.40;3.40;;;15.60;99.90;;;;;;5072540;28;20997;-49
2022/09/15 02:19:04;;;;;;;13.70;4.23;;;15.50;99.90;;;;;;5072006;28;20479;-49
2022/09/15 02:21:39;;;;;;;8.57;4.30;;;15.40;99.90;;;;;;5072809;28;20532;-49
2022/09/15 02:24:09;;;;;;;10.70;4.57;;;15.50;99.90;;;;;;5072738;28;20568;-49
2022/09/15 02:26:40;;;;;;;9.93;5.43;;;15.40;99.90;;;;;;5072772;28;20444;-50
2022/09/15 02:29:09;;;;;;;16.67;5.80;;;15.20;99.90;;;;;;5072769;28;20438;-51
2022/09/15 02:31:38;;;;;;;13.80;6.23;;;15.40;99.90;;;;;;5072691;28;20445;-50
2022/09/15 02:34:12;;;;;;;11.13;6.80;;;15.40;99.90;;;;;;5054566;28;20539;-51
2022/09/15 02:36:41;;;;;;;10.90;6.77;;;15.40;99.90;;;;;;5072537;28;20429;-51
2022/09/15 02:39:10;;;;;;;10.57;6.67;;;15.30;99.90;;;;;;5072165;28;20434;-50
2022/09/15 02:41:37;;;;;;;9.83;5.90;;;15.30;99.90;;;;;;5072569;28;20434;-51
2022/09/15 02:44:03;;;;;;;11.57;6.53;;;15.20;99.90;;;;;;5072395;28;20482;-50
2022/09/15 02:46:30;;;;;;;12.70;6.50;;;15.10;99.90;;;;;;5072416;28;20426;-50
2022/09/15 02:48:56;;;;;;;7.70;6.07;;;15.20;99.90;;;;;;5071995;28;20433;-51
2022/09/15 02:51:24;;;;;;;8.50;5.70;;;15.60;99.90;;;;;;5072416;28;20753;-51
2022/09/15 02:53:52;;;;;;;12.37;6.80;;;15.20;99.90;;;;;;5072270;28;20970;-51
2022/09/15 02:56:19;;;;;;;10.13;5.30;;;15.00;99.90;;;;;;5072195;28;20442;-50
2022/09/15 02:58:46;;;;;;;10.83;5.77;;;15.20;99.90;;;;;;5072020;28;20430;-49
2022/09/15 03:01:14;;;;;;;11.43;6.03;;;15.10;99.90;;;;;;5072019;28;20438;-49
2022/09/15 03:03:41;;;;;;;6.67;4.20;;;15.20;99.90;;;;;;5071974;28;20454;-49
2022/09/15 03:06:19;;;;;;;16.40;5.93;;;15.30;99.90;;;;;;5071949;28;20456;-49
2022/09/15 03:08:50;;;;;;;14.53;6.47;;;15.20;99.90;;;;;;5071808;28;20446;-50
2022/09/15 03:11:19;;;;;;;11.50;6.07;;;15.10;99.90;;;;;;5072318;28;20466;-49
2022/09/15 03:13:46;;;;;;;12.20;7.07;;;15.00;99.90;;;;;;5071795;28;20818;-50
2022/09/15 03:16:14;;;;;;;11.47;6.50;;;15.10;99.90;;;;;;5071828;28;20426;-49
2022/09/15 03:18:42;;;;;;;9.70;6.10;;;15.10;99.90;;;;;;5071616;28;20535;-50
2022/09/15 03:21:12;;;;;;;10.83;6.20;;;15.30;99.90;;;;;;5071856;28;20954;-50
2022/09/15 03:23:39;;;;;;;13.77;7.40;;;15.00;99.90;;;;;;5071899;28;20465;-50
2022/09/15 03:26:08;;;;;;;7.23;6.03;;;14.90;99.90;;;;;;5071736;28;20485;-50
2022/09/15 03:28:35;;;;;;;15.50;8.00;;;15.20;99.90;;;;;;5071398;28;20429;-49
2022/09/15 03:31:02;;;;;;;10.80;5.50;;;15.00;99.90;;;;;;5071846;28;20487;-50
2022/09/15 03:33:29;;;;;;;15.67;7.10;;;15.20;99.90;;;;;;5053546;28;20874;-50
2022/09/15 03:35:56;;;;;;;10.47;6.80;;;15.30;99.90;;;;;;5071716;28;20466;-49
2022/09/15 03:38:23;;;;;;;12.00;6.57;;;14.90;99.90;;;;;;5071462;28;20433;-52
2022/09/15 03:40:58;;;;;;;13.10;5.90;;;15.20;99.90;;;;;;5071688;28;20858;-49
2022/09/15 03:43:26;;;;;;;11.67;7.00;;;14.70;99.90;;;;;;5072061;28;20636;-50
2022/09/15 03:45:53;;;;;;;12.20;5.80;;;15.00;99.90;;;;;;5072275;28;20534;-51
2022/09/15 03:48:20;;;;;;;11.53;6.30;;;14.50;99.90;;;;;;5071954;28;20813;-49
2022/09/15 03:50:47;;;;;;;7.83;5.47;;;15.20;99.90;;;;;;5071367;28;20433;-49
2022/09/15 03:53:14;;;;;;;10.70;5.33;;;14.60;99.90;;;;;;5071370;28;20849;-49
2022/09/15 03:55:41;;;;;;;7.90;5.63;;;14.80;99.90;;;;;;5053300;28;20440;-50
2022/09/15 03:58:08;;;;;;;8.57;5.57;;;15.10;99.90;;;;;;5071417;28;20446;-50
2022/09/15 04:00:35;;;;;;;12.70;6.50;;;14.40;99.90;;;;;;5071028;28;20946;-49
2022/09/15 04:03:02;;;;;;;11.80;6.00;;;14.70;99.90;;;;;;5071344;28;20544;-50
2022/09/15 04:05:29;;;;;;;12.67;4.97;;;14.50;99.90;;;;;;5071165;28;20503;-51
2022/09/15 04:07:55;;;;;;;8.00;5.17;;;14.60;99.90;;;;;;5071313;28;20437;-49
2022/09/15 04:10:23;;;;;;;13.90;5.80;;;14.60;99.90;;;;;;5052894;28;20556;-50
2022/09/15 04:12:51;;;;;;;16.90;6.10;;;14.90;99.90;;;;;;5071543;28;20488;-49
2022/09/15 04:15:17;;;;;;;7.73;5.57;;;14.60;99.90;;;;;;5071106;28;20852;-49
2022/09/15 04:17:46;;;;;;;9.20;5.17;;;14.60;99.90;;;;;;5071196;28;20436;-50
2022/09/15 04:20:13;;;;;;;8.63;5.20;;;14.30;99.90;;;;;;5070965;28;20438;-50
2022/09/15 04:22:39;;;;;;;10.83;5.80;;;14.80;99.90;;;;;;5071109;28;20450;-49
2022/09/15 04:25:08;;;;;;;11.77;5.30;;;14.10;99.90;;;;;;5071418;28;20480;-50
2022/09/15 04:27:35;;;;;;;10.10;6.13;;;14.60;99.90;;;;;;5071893;28;20445;-50
2022/09/15 04:30:02;;;;;;;10.83;5.90;;;14.70;99.90;;;;;;5071628;28;20440;-51
2022/09/15 04:35:02;;;;;;;10.00;6.00;;;14.90;99.90;;;;;;5049605;28;20458;-51
2022/09/15 04:37:29;;;;;;;10.53;6.73;;;14.80;99.90;;;;;;5051263;28;20428;-52
2022/09/15 04:39:56;;;;;;;13.40;5.00;;;14.90;99.90;;;;;;5051249;28;20923;-51
2022/09/15 04:42:22;;;;;;;8.73;5.50;;;15.20;99.90;;;;;;5055043;28;20434;-51
2022/09/15 04:44:49;;;;;;;9.83;5.20;;;14.90;99.90;;;;;;5054818;28;20478;-51
2022/09/15 04:47:16;;;;;;;11.40;5.87;;;15.00;99.90;;;;;;5054900;28;20431;-51
2022/09/15 04:49:43;;;;;;;8.07;5.40;;;15.20;99.90;;;;;;5054275;28;20891;-52
2022/09/15 04:52:10;;;;;;;12.60;4.77;;;15.20;99.90;;;;;;5054710;28;20462;-54
2022/09/15 04:54:37;;;;;;;11.03;5.47;;;14.30;99.90;;;;;;5054799;28;20542;-52
2022/09/15 04:57:04;;;;;;;12.23;5.67;;;15.00;99.90;;;;;;5053370;28;20512;-52
2022/09/15 04:59:31;;;;;;;8.10;5.27;;;14.50;99.90;;;;;;5054478;28;20473;-51
2022/09/15 05:01:57;;;;;;;9.70;4.60;;;14.80;99.90;;;;;;5054729;28;20434;-52
2022/09/15 05:04:24;;;;;;;7.43;4.67;;;14.60;99.90;;;;;;5054524;28;20460;-52
2022/09/15 05:06:51;;;;;;;14.63;5.13;;;14.90;99.90;;;;;;5054385;28;20758;-52
2022/09/15 05:09:19;;;;;;;11.30;6.83;;;15.10;99.90;;;;;;5054291;28;20437;-51
2022/09/15 05:11:46;;;;;;;10.50;5.47;;;15.00;99.90;;;;;;5054522;28;20593;-52
2022/09/15 05:14:12;;;;;;;14.53;5.27;;;14.90;99.90;;;;;;5054146;28;20834;-51
2022/09/15 05:16:39;;;;;;;11.97;6.57;;;14.40;99.90;;;;;;5054214;28;20530;-51
2022/09/15 05:19:06;;;;;;;8.63;4.83;;;14.70;99.90;;;;;;5054179;28;20434;-52
2022/09/15 05:21:33;;;;;;;7.57;4.60;;;14.90;99.90;;;;;;5053976;28;20810;-51
2022/09/15 05:23:59;;;;;;;16.30;5.40;;;14.80;99.90;;;;;;5054128;28;20477;-51
2022/09/15 05:26:29;;;;;;;7.50;4.73;;;14.30;99.90;;;;;;5053588;28;20482;-52
2022/09/15 05:28:56;;;;;;;10.43;5.77;;;14.30;99.90;;;;;;5053544;28;20445;-51
2022/09/15 05:31:25;;;;;;;5.57;4.80;;;14.40;99.90;;;;;;5053469;28;20431;-51
2022/09/15 05:33:52;;;;;;;11.20;5.40;;;15.00;99.90;;;;;;5053466;28;21013;-51
2022/09/15 05:36:22;;;;;;;8.90;5.60;;;15.20;99.90;;;;;;5053540;28;20448;-51
2022/09/15 05:38:49;;;;;;;13.10;5.30;;;14.80;99.90;;;;;;5052382;28;20744;-52
2022/09/15 05:41:18;;;;;;;11.57;5.40;;;15.20;99.90;;;;;;5053447;28;20442;-52
2022/09/15 05:43:46;;;;;;;10.33;6.00;;;14.90;99.90;;;;;;5052069;28;20558;-52
2022/09/15 05:46:14;;;;;;;11.07;4.40;;;14.70;99.90;;;;;;5052390;28;20470;-52
2022/09/15 05:48:41;;;;;;;11.20;5.43;;;15.10;99.90;;;;;;5052726;28;20437;-51
2022/09/15 05:51:07;;;;;;;12.30;6.17;;;15.20;99.90;;;;;;5053364;28;20531;-52
2022/09/15 05:53:35;;;;;;;7.67;4.73;;;15.50;99.90;;;;;;5052972;28;20794;-52
2022/09/15 05:56:04;;;;;;;12.93;6.30;;;15.60;99.90;;;;;;5053185;28;20442;-52
2022/09/15 05:58:31;;;;;;;6.93;4.43;;;15.50;99.90;;;;;;5052956;28;20433;-53
2022/09/15 06:01:05;;;;;;;10.03;5.20;;;15.10;99.90;;;;;;5053310;28;20452;-52
2022/09/15 06:03:32;;;;;;;7.03;4.03;;;15.80;99.90;;;;;;5053522;28;20445;-53
2022/09/15 06:05:59;;;;;;;9.13;5.90;;;15.80;99.90;;;;;;5052829;28;20560;-52
2022/09/15 06:08:26;;;;;;;7.77;4.30;;;15.80;99.90;;;;;;5052865;28;20433;-51
2022/09/15 06:10:52;;;;;;;5.43;3.90;;;16.10;99.90;;;;;;5053158;28;20442;-52
2022/09/15 06:13:19;;;;;;;9.80;4.60;;;16.20;99.90;;;;;;5053245;28;20446;-53
2022/09/15 06:15:45;;;;;;;12.60;4.53;;;16.60;99.90;;;;;;5053094;28;20435;-53
2022/09/15 06:18:14;;;;;;;9.10;4.30;;;16.20;99.90;;;;;;5053096;28;20506;-52
2022/09/15 06:20:41;;;;;;;5.63;4.10;;;16.30;99.90;;;;;;5053151;28;20438;-52
2022/09/15 06:23:07;;;;;;;9.97;4.80;;;16.30;99.90;;;;;;5051098;28;20511;-53
2022/09/15 06:25:34;;;;;;;11.40;5.03;;;16.50;99.90;;;;;;5052736;28;20497;-53
2022/09/15 06:28:01;;;;;;;9.07;4.33;;;16.20;99.90;;;;;;5052434;28;20837;-52
2022/09/15 06:30:28;;;;;;;5.97;3.70;;;16.10;99.90;;;;;;5052597;28;20430;-52
2022/09/15 06:32:54;;;;;;;11.43;4.30;;;16.60;99.90;;;;;;5052418;28;20474;-52
2022/09/15 06:35:22;;;;;;;8.20;4.37;;;16.50;99.90;;;;;;5052817;28;20478;-52
2022/09/15 06:37:49;;;;;;;8.77;4.77;;;16.30;99.90;;;;;;5052414;28;20435;-52
2022/09/15 06:40:16;;;;;;;5.80;3.60;;;16.60;99.90;;;;;;5051907;28;20430;-53
2022/09/15 06:42:43;;;;;;;11.60;5.83;;;16.60;99.90;;;;;;5051956;28;20529;-52
2022/09/15 06:45:11;;;;;;;9.43;3.80;;;16.70;99.90;;;;;;5051282;28;20447;-52
2022/09/15 06:47:37;;;;;;;7.43;4.57;;;16.70;99.90;;;;;;5052322;28;20441;-52
2022/09/15 06:50:05;;;;;;;6.80;4.37;;;16.70;99.90;;;;;;5051897;28;20904;-53
2022/09/15 06:52:33;;;;;;;12.20;5.30;;;16.80;99.90;;;;;;5052367;28;20527;-52
2022/09/15 06:55:00;;;;;;;8.53;4.67;;;17.00;99.90;;;;;;5051902;28;20491;-53
2022/09/15 06:57:27;;;;;;;9.13;4.90;;;16.90;99.90;;;;;;5052012;28;20441;-52
2022/09/15 06:59:53;;;;;;;7.73;3.60;;;17.20;99.90;;;;;;5052045;28;20946;-53
2022/09/15 07:02:20;;;;;;;8.07;4.27;;;16.90;99.90;;;;;;5052150;28;20424;-52
2022/09/15 07:04:47;;;;;;;6.27;4.20;;;16.90;99.90;;;;;;5051621;28;20458;-53
2022/09/15 07:07:13;;;;;;;6.90;5.47;;;16.90;99.90;;;;;;5051918;28;20479;-52
2022/09/15 07:09:41;;;;;;;8.90;6.03;;;16.90;99.90;;;;;;5051123;28;20805;-53
2022/09/15 07:12:08;;;;;;;12.10;5.73;;;16.90;99.90;;;;;;5051932;28;20440;-50
2022/09/15 07:14:35;;;;;;;9.80;5.27;;;17.00;99.90;;;;;;5051792;28;20463;-52
2022/09/15 07:17:01;;;;;;;12.50;5.47;;;17.00;99.90;;;;;;5051386;28;20814;-51
2022/09/15 07:19:28;;;;;;;6.40;4.83;;;17.00;99.90;;;;;;5051131;28;20517;-51
2022/09/15 07:21:55;;;;;;;7.00;4.80;;;17.00;99.90;;;;;;5051597;28;20451;-51
2022/09/15 07:24:21;;;;;;;7.93;4.23;;;16.80;99.90;;;;;;5051811;28;20461;-51
2022/09/15 07:26:50;;;;;;;22.00;4.10;;;17.20;99.90;;;;;;5051510;28;20479;-51
2022/09/15 07:29:17;;;;;;;8.83;4.20;;;17.00;99.90;;;;;;5051183;28;20444;-52
2022/09/15 07:31:44;;;;;;;8.80;3.80;;;16.90;99.90;;;;;;5051505;28;20437;-51
2022/09/15 07:34:10;;;;;;;7.30;4.10;;;17.50;99.90;;;;;;5051207;28;20467;-52
2022/09/15 07:36:37;;;;;;;9.87;4.60;;;17.20;99.90;;;;;;5051162;28;20534;-52
2022/09/15 07:39:04;;;;;;;8.10;4.53;;;17.30;99.90;;;;;;5051413;28;20483;-52
2022/09/15 07:41:32;;;;;;;8.10;4.20;;;17.10;99.90;;;;;;5051225;28;20438;-51
2022/09/15 07:44:00;;;;;;;10.00;4.73;;;17.40;99.90;;;;;;5051335;28;20457;-51
2022/09/15 07:46:31;;;;;;;11.33;5.90;;;17.20;99.90;;;;;;5051577;28;20478;-52
2022/09/15 07:48:59;;;;;;;9.23;5.33;;;17.50;99.90;;;;;;5051203;28;20471;-52
2022/09/15 07:51:26;;;;;;;8.80;5.20;;;17.40;99.90;;;;;;5051217;28;20555;-52
2022/09/15 07:53:54;;;;;;;9.33;4.73;;;17.80;99.90;;;;;;5051247;28;20551;-52
2022/09/15 07:56:22;;;;;;;7.00;4.00;;;17.60;99.90;;;;;;5051414;28;20490;-53
2022/09/15 07:58:49;;;;;;;9.07;5.17;;;17.60;99.90;;;;;;5050874;28;20441;-52
2022/09/15 08:01:19;;;;;;;5.53;4.10;;;17.30;99.90;;;;;;5051268;28;20439;-52
2022/09/15 08:03:48;;;;;;;8.50;4.90;;;18.10;99.90;;;;;;5051310;28;20452;-52
2022/09/15 08:06:16;;;;;;;7.10;3.10;;;17.80;99.90;;;;;;5051162;28;20908;-53
2022/09/15 08:08:43;;;;;;;8.43;4.00;;;17.60;99.90;;;;;;5050970;28;20437;-52
2022/09/15 08:11:12;;;;;;;9.70;3.97;;;18.40;99.90;;;;;;5051138;28;20540;-52
2022/09/15 08:13:38;;;;;;;7.60;3.40;;;18.10;99.90;;;;;;5051151;28;20481;-52
2022/09/15 08:16:07;;;;;;;9.13;5.10;;;18.30;99.90;;;;;;5053511;28;20466;-52
2022/09/15 08:18:35;;;;;;;6.13;4.60;;;18.20;99.90;;;;;;5054929;28;20433;-52
2022/09/15 08:21:05;;;;;;;8.63;4.60;;;18.40;99.90;;;;;;5055052;28;20436;-52
2022/09/15 08:23:33;;;;;;;8.40;3.60;;;18.30;99.90;;;;;;5055312;28;20457;-53
2022/09/15 08:25:59;;;;;;;5.63;3.10;;;18.30;99.90;;;;;;5054922;28;20831;-51
2022/09/15 08:28:26;;;;;;;11.73;3.40;;;18.30;99.90;;;;;;5053493;28;20443;-52
2022/09/15 08:30:59;;;;;;;6.77;3.20;;;18.30;99.90;;;;;;5054680;28;20442;-54
2022/09/15 08:33:26;;;;;;;4.57;3.30;;;18.30;99.90;;;;;;5054854;28;20463;-53
2022/09/15 08:35:54;;;;;;;9.50;3.10;;;18.30;99.90;;;;;;5055145;28;20438;-54
2022/09/15 08:38:21;;;;;;;10.43;4.30;;;18.60;99.90;;;;;;5053678;28;20957;-53
2022/09/15 08:40:48;;;;;;;7.40;4.43;;;18.20;99.90;;;;;;5055093;28;20938;-53
2022/09/15 08:43:23;;;;;;;9.57;4.67;;;18.30;99.90;;;;;;5055403;28;20454;-54
2022/09/15 08:45:53;;;;;;;6.23;4.00;;;18.20;99.90;;;;;;5055294;28;20441;-53
2022/09/15 08:48:26;;;;;;;8.87;3.57;;;18.70;99.90;;;;;;5055117;28;20950;-53
2022/09/15 08:50:56;;;;;;;8.70;5.70;;;18.90;99.90;;;;;;5055061;28;20433;-54
2022/09/15 08:53:27;;;;;;;9.80;4.53;;;18.80;99.90;;;;;;5054450;28;21020;-55
2022/09/15 08:55:55;;;;;;;6.90;3.93;;;18.80;99.90;;;;;;5054423;28;20937;-54
2022/09/15 08:58:25;;;;;;;9.70;3.33;;;18.90;99.90;;;;;;5054663;28;20438;-52
2022/09/15 09:01:00;;;;;;;8.40;3.53;;;19.00;99.90;;;;;;5054532;28;20744;-52
2022/09/15 09:03:48;;;;;;;10.03;3.70;;;18.90;99.90;;;;;;5054995;28;20456;-53
2022/09/15 09:06:22;;;;;;;7.27;3.90;;;19.00;99.90;;;;;;5055014;28;20590;-54
2022/09/15 09:09:00;;;;;;;6.20;2.90;;;19.00;99.90;;;;;;5054228;28;20444;-54
2022/09/15 09:11:48;;;;;;;6.60;3.13;;;19.10;99.90;;;;;;5054421;28;20525;-54
2022/09/15 09:14:24;;;;;;;10.80;3.17;;;19.20;99.90;;;;;;5054996;28;20472;-54
2022/09/15 09:17:02;;;;;;;5.33;2.50;;;19.30;99.90;;;;;;5054481;28;20796;-53
2022/09/15 09:19:52;;;;;;;4.40;2.40;;;19.30;99.90;;;;;;5054059;28;20433;-53
2022/09/15 09:22:23;;;;;;;7.73;3.10;;;19.60;99.90;;;;;;5054589;28;20474;-52
2022/09/15 09:24:54;;;;;;;8.07;2.60;;;19.40;99.90;;;;;;5053748;28;20454;-54
2022/09/15 09:27:24;;;;;;;8.37;2.70;;;19.40;99.90;;;;;;5052921;28;20489;-53
2022/09/15 09:29:57;;;;;;;5.10;2.73;;;19.50;99.90;;;;;;5053535;28;20438;-52
2022/09/15 09:32:26;;;;;;;7.00;3.20;;;19.30;99.90;;;;;;5053789;28;20439;-53
2022/09/15 09:34:59;;;;;;;7.40;2.60;;;19.40;99.90;;;;;;5053791;28;20466;-53
2022/09/15 09:37:28;;;;;;;4.73;2.47;;;19.40;99.90;;;;;;5054088;28;20438;-54
2022/09/15 09:39:54;;;;;;;14.83;5.27;;;19.40;99.90;;;;;;5053780;28;20445;-54
2022/09/15 09:42:27;;;;;;;9.90;3.93;;;19.30;99.90;;;;;;5053838;28;20442;-54
2022/09/15 09:44:54;;;;;;;4.77;2.57;;;19.30;99.90;;;;;;5053816;28;20457;-54
2022/09/15 09:47:26;;;;;;;8.53;2.80;;;19.30;99.90;;;;;;5053114;28;20486;-52
2022/09/15 09:49:52;;;;;;;7.50;2.63;;;19.50;99.90;;;;;;5052244;28;20486;-53
2022/09/15 09:52:34;;;;;;;6.83;2.50;;;20.10;99.50;;;;;;5053511;28;20439;-54
2022/09/15 09:55:01;;;;;;;7.17;2.50;;;19.80;99.30;;;;;;5052060;28;20442;-53
2022/09/15 09:57:30;;;;;;;9.60;2.80;;;19.60;99.10;;;;;;5053491;28;20807;-52
2022/09/15 09:59:57;;;;;;;7.10;2.77;;;19.60;99.50;;;;;;5053227;28;20552;-54
2022/09/15 10:02:25;;;;;;;5.83;2.30;;;19.40;98.80;;;;;;5053147;28;20435;-54
2022/09/15 10:04:54;;;;;;;3.77;2.00;;;19.50;98.50;;;;;;5052942;28;20450;-53
2022/09/15 10:07:23;;;;;;;9.10;2.63;;;19.50;98.30;;;;;;5052808;28;20497;-53
2022/09/15 10:09:55;;;;;;;4.23;2.30;;;19.60;98.20;;;;;;5052867;28;20840;-54
2022/09/15 10:12:26;;;;;;;6.80;2.43;;;19.80;98.20;;;;;;5052872;28;20423;-53
2022/09/15 10:14:56;;;;;;;5.60;1.90;;;20.00;98.00;;;;;;5053146;28;20828;-53
2022/09/15 10:17:25;;;;;;;3.47;1.60;;;20.10;97.30;;;;;;5052986;28;20438;-54
2022/09/15 10:19:54;;;;;;;2.77;1.57;;;20.30;97.00;;;;;;5053866;28;20561;-54
2022/09/15 10:22:24;;;;;;;4.53;1.77;;;20.30;96.40;;;;;;5052412;28;20441;-54
2022/09/15 10:24:50;;;;;;;7.00;2.00;;;20.40;96.40;;;;;;5053158;28;20457;-54
2022/09/15 10:27:25;;;;;;;8.60;1.80;;;20.60;96.30;;;;;;5053354;28;20528;-54
2022/09/15 10:29:52;;;;;;;7.40;2.10;;;20.30;96.10;;;;;;5051787;28;20434;-54
2022/09/15 10:32:25;;;;;;;6.97;2.03;;;20.80;95.90;;;;;;5052915;28;20193;-53
2022/09/15 10:35:01;;;;;;;5.13;1.80;;;20.30;95.70;;;;;;5059660;22;20867;-53
2022/09/15 10:37:32;;;;;;;7.03;2.00;;;20.70;95.70;;;;;;5031634;28;20756;-52
2022/09/15 10:40:00;;;;;;;3.67;1.40;;;20.40;95.60;;;;;;5030388;28;20462;-51
2022/09/15 10:42:48;;;;;;;4.73;1.50;;;20.50;95.40;;;;;;5032271;28;20528;-53
2022/09/15 10:45:23;;;;;;;10.40;2.30;;;20.40;94.80;;;;;;5012533;28;20456;-52
2022/09/15 10:48:02;;;;;;;6.27;2.90;;;20.50;94.80;;;;;;5012429;28;20488;-52
2022/09/15 10:50:31;;;;;;;5.73;4.60;;;20.30;93.80;;;;;;5011767;28;20838;-52
2022/09/15 10:53:14;;;;;;;7.10;1.70;;;20.60;94.20;;;;;;5011928;28;20438;-52
2022/09/15 10:55:49;;;;;;;4.57;1.97;;;20.40;93.70;;;;;;5012311;28;20782;-52
2022/09/15 10:58:46;;;;;;;5.10;2.20;;;20.30;93.80;;;;;;5012247;28;20893;-52
2022/09/15 11:01:26;;;;;;;4.40;1.77;;;20.30;93.60;;;;;;5012059;28;20437;-52
2022/09/15 11:04:10;;;;;;;8.00;2.00;;;20.20;93.60;;;;;;5011908;28;20460;-52
2022/09/15 11:06:46;;;;;;;5.63;2.00;;;20.20;93.40;;;;;;5011950;28;20854;-52
2022/09/15 11:09:18;;;;;;;9.70;1.90;;;20.10;93.50;;;;;;5011674;28;20439;-52
2022/09/15 11:11:59;;;;;;;3.73;1.73;;;20.20;93.70;;;;;;5012042;28;20550;-51
2022/09/15 11:14:44;;;;;;;4.80;1.97;;;20.10;93.70;;;;;;5011484;28;20457;-52
2022/09/15 11:17:26;;;;;;;4.63;2.00;;;20.20;93.70;;;;;;5011567;28;20429;-52
2022/09/15 11:20:16;;;;;;;6.30;1.90;;;20.00;93.80;;;;;;5012014;28;20805;-52
2022/09/15 11:22:48;;;;;;;4.70;1.70;;;19.90;93.70;;;;;;5011834;28;20436;-54
2022/09/15 11:25:19;;;;;;;3.97;1.50;;;19.80;93.80;;;;;;5011918;28;20437;-52
2022/09/15 11:27:51;;;;;;;7.20;1.97;;;20.10;93.80;;;;;;5012559;28;20473;-52
2022/09/15 11:30:21;;;;;;;12.13;2.57;;;20.10;93.50;;;;;;5011334;28;20442;-52
2022/09/15 11:32:51;;;;;;;5.13;1.93;;;20.40;93.20;;;;;;5011658;28;20433;-52
2022/09/15 11:35:36;;;;;;;2.83;1.43;;;20.40;93.20;;;;;;5012060;28;20447;-52
2022/09/15 11:38:14;;;;;;;5.83;1.40;;;20.50;92.80;;;;;;5011784;28;20429;-51
2022/09/15 11:40:47;;;;;;;7.67;2.47;;;20.50;92.60;;;;;;5011293;28;20448;-52
2022/09/15 11:43:21;;;;;;;2.90;1.47;;;20.70;92.60;;;;;;5011339;28;20906;-50
2022/09/15 11:45:53;;;;;;;5.83;1.87;;;20.50;92.30;;;;;;5011640;28;20432;-53
2022/09/15 11:48:24;;;;;;;7.83;2.30;;;20.60;92.20;;;;;;5011435;28;20485;-52
2022/09/15 11:50:56;;;;;;;5.70;3.07;;;20.60;92.20;;;;;;5010155;28;20950;-53
2022/09/15 11:53:30;;;;;;;8.90;2.20;;;20.70;92.40;;;;;;5010750;28;20449;-52
2022/09/15 11:56:05;;;;;;;6.40;1.67;;;20.90;92.10;;;;;;5011335;28;20496;-52
2022/09/15 11:58:41;;;;;;;4.97;1.85;;;20.60;92.00;;;;;;5011033;28;20765;-51
2022/09/15 12:01:17;;;;;;;3.80;1.83;;;20.60;91.70;;;;;;5011882;28;20202;-52
2022/09/15 12:03:48;;;;;;;7.60;2.43;;;20.50;91.60;;;;;;5011727;28;20465;-52
2022/09/15 12:06:21;;;;;;;5.70;1.87;;;20.30;91.40;;;;;;5011816;28;20896;-52
2022/09/15 12:08:53;;;;;;;5.90;1.80;;;20.40;91.60;;;;;;5010747;28;20485;-52
2022/09/15 12:11:22;;;;;;;3.93;1.80;;;20.30;91.60;;;;;;5011143;28;20426;-53
2022/09/15 12:13:51;;;;;;;5.13;1.67;;;20.30;91.40;;;;;;5009862;28;20473;-52
2022/09/15 12:16:20;;;;;;;6.67;2.10;;;20.50;91.60;;;;;;5011401;28;20438;-53
2022/09/15 12:18:51;;;;;;;8.30;1.90;;;20.40;91.50;;;;;;5011130;28;20805;-52
2022/09/15 12:21:26;;;;;;;4.37;2.37;;;20.60;91.70;;;;;;5009816;28;20450;-52
2022/09/15 12:23:57;;;;;;;7.57;1.83;;;20.40;91.50;;;;;;5010705;28;20820;-52
2022/09/15 12:26:27;;;;;;;7.27;2.30;;;20.30;91.50;;;;;;5011251;28;20952;-52
2022/09/15 12:28:57;;;;;;;7.90;2.17;;;20.30;91.60;;;;;;5010855;28;20849;-50
2022/09/15 12:31:32;;;;;;;5.23;2.30;;;19.90;91.60;;;;;;5010608;28;20453;-52
2022/09/15 12:34:02;;;;;;;7.90;2.37;;;20.00;91.80;;;;;;5011054;28;20468;-52
2022/09/15 12:36:42;;;;;;;5.90;2.17;;;19.40;91.70;;;;;;5011251;28;20995;-52
2022/09/15 12:39:29;;;;;;;6.90;1.70;;;19.80;92.10;;;;;;5010846;28;20498;-52
2022/09/15 12:42:06;;;;;;;5.57;1.97;;;19.70;92.20;;;;;;5010569;28;20440;-52
2022/09/15 12:44:36;;;;;;;5.03;1.80;;;19.60;92.10;;;;;;5010809;28;20457;-52
2022/09/15 12:47:16;;;;;;;9.40;1.90;;;19.50;92.10;;;;;;5010638;28;20441;-52
2022/09/15 12:49:46;;;;;;;5.67;2.00;;;19.60;92.20;;;;;;5010517;28;20770;-52
2022/09/15 12:52:14;;;;;;;7.43;2.50;;;19.80;92.20;;;;;;5010839;28;20439;-52
2022/09/15 12:54:44;;;;;;;4.10;1.77;;;19.60;92.20;;;;;;5009241;28;20568;-52
2022/09/15 12:57:22;;;;;;;6.80;1.90;;;19.60;92.20;;;;;;5011066;28;20933;-52
2022/09/15 12:59:48;;;;;;;5.20;2.17;;;19.50;92.10;;;;;;5009237;28;21023;-52